sensor_id;sensor_type;location;lat;lon;timestamp;P1;durP1;ratioP1;P2;durP2;ratioP2
38843;SDS011;24596;48.080;8.362;2023-05-07T00:00:17;6.63;;;3.35;;
38843;SDS011;24596;48.080;8.362;2023-05-07T00:02:44;8.40;;;3.47;;
38843;SDS011;24596;48.080;8.362;2023-05-07T00:05:09;9.98;;;3.63;;
38843;SDS011;24596;48.080;8.362;2023-05-07T00:07:34;7.35;;;3.47;;
38843;SDS011;24596;48.080;8.362;2023-05-07T00:10:00;6.30;;;3.40;;
38843;SDS011;24596;48.080;8.362;2023-05-07T00:12:25;7.05;;;3.25;;
38843;SDS011;24596;48.080;8.362;2023-05-07T00:14:50;8.02;;;3.70;;
38843;SDS011;24596;48.080;8.362;2023-05-07T00:17:15;6.53;;;3.22;;
38843;SDS011;24596;48.080;8.362;2023-05-07T00:19:41;6.57;;;3.78;;
38843;SDS011;24596;48.080;8.362;2023-05-07T00:22:06;8.77;;;4.25;;
38843;SDS011;24596;48.080;8.362;2023-05-07T00:24:32;8.05;;;4.55;;
38843;SDS011;24596;48.080;8.362;2023-05-07T00:26:57;7.90;;;3.72;;
38843;SDS011;24596;48.080;8.362;2023-05-07T00:29:23;6.50;;;3.47;;
38843;SDS011;24596;48.080;8.362;2023-05-07T00:31:48;8.73;;;3.72;;
38843;SDS011;24596;48.080;8.362;2023-05-07T00:34:14;7.13;;;3.97;;
38843;SDS011;24596;48.080;8.362;2023-05-07T00:36:39;9.13;;;3.88;;
38843;SDS011;24596;48.080;8.362;2023-05-07T00:39:04;9.35;;;4.15;;
38843;SDS011;24596;48.080;8.362;2023-05-07T00:41:29;7.68;;;4.13;;
38843;SDS011;24596;48.080;8.362;2023-05-07T00:43:58;6.25;;;3.65;;
38843;SDS011;24596;48.080;8.362;2023-05-07T00:46:23;6.78;;;3.65;;
38843;SDS011;24596;48.080;8.362;2023-05-07T00:48:51;7.65;;;3.72;;
38843;SDS011;24596;48.080;8.362;2023-05-07T00:51:17;10.25;;;3.85;;
38843;SDS011;24596;48.080;8.362;2023-05-07T00:53:42;7.90;;;3.47;;
38843;SDS011;24596;48.080;8.362;2023-05-07T00:56:08;7.57;;;3.58;;
38843;SDS011;24596;48.080;8.362;2023-05-07T00:58:33;7.25;;;3.85;;
38843;SDS011;24596;48.080;8.362;2023-05-07T01:00:59;8.85;;;3.95;;
38843;SDS011;24596;48.080;8.362;2023-05-07T01:03:24;8.00;;;4.10;;
38843;SDS011;24596;48.080;8.362;2023-05-07T01:05:49;22.30;;;6.20;;
38843;SDS011;24596;48.080;8.362;2023-05-07T01:08:15;9.55;;;4.03;;
38843;SDS011;24596;48.080;8.362;2023-05-07T01:10:41;9.77;;;4.00;;
38843;SDS011;24596;48.080;8.362;2023-05-07T01:13:08;8.32;;;3.38;;
38843;SDS011;24596;48.080;8.362;2023-05-07T01:15:34;8.70;;;3.63;;
38843;SDS011;24596;48.080;8.362;2023-05-07T01:17:59;9.02;;;4.13;;
38843;SDS011;24596;48.080;8.362;2023-05-07T01:20:25;9.95;;;3.60;;
38843;SDS011;24596;48.080;8.362;2023-05-07T01:22:51;9.55;;;3.83;;
38843;SDS011;24596;48.080;8.362;2023-05-07T01:25:16;7.43;;;3.80;;
38843;SDS011;24596;48.080;8.362;2023-05-07T01:27:41;7.10;;;3.50;;
38843;SDS011;24596;48.080;8.362;2023-05-07T01:30:07;7.45;;;3.45;;
38843;SDS011;24596;48.080;8.362;2023-05-07T01:32:37;8.45;;;3.33;;
38843;SDS011;24596;48.080;8.362;2023-05-07T01:35:06;6.43;;;3.30;;
38843;SDS011;24596;48.080;8.362;2023-05-07T01:37:32;9.55;;;3.83;;
38843;SDS011;24596;48.080;8.362;2023-05-07T01:39:57;6.25;;;3.78;;
38843;SDS011;24596;48.080;8.362;2023-05-07T01:42:23;8.85;;;3.53;;
38843;SDS011;24596;48.080;8.362;2023-05-07T01:44:48;7.65;;;3.92;;
38843;SDS011;24596;48.080;8.362;2023-05-07T01:47:13;7.75;;;3.78;;
38843;SDS011;24596;48.080;8.362;2023-05-07T01:49:39;7.13;;;3.72;;
38843;SDS011;24596;48.080;8.362;2023-05-07T01:52:04;8.18;;;3.75;;
38843;SDS011;24596;48.080;8.362;2023-05-07T01:54:30;9.90;;;3.83;;
38843;SDS011;24596;48.080;8.362;2023-05-07T01:56:58;9.18;;;4.10;;
38843;SDS011;24596;48.080;8.362;2023-05-07T01:59:23;5.75;;;3.33;;
38843;SDS011;24596;48.080;8.362;2023-05-07T02:01:48;7.88;;;3.70;;
38843;SDS011;24596;48.080;8.362;2023-05-07T02:04:14;7.50;;;3.80;;
38843;SDS011;24596;48.080;8.362;2023-05-07T02:06:39;7.20;;;3.25;;
38843;SDS011;24596;48.080;8.362;2023-05-07T02:09:04;7.88;;;4.32;;
38843;SDS011;24596;48.080;8.362;2023-05-07T02:11:29;6.55;;;3.72;;
38843;SDS011;24596;48.080;8.362;2023-05-07T02:13:55;6.40;;;3.28;;
38843;SDS011;24596;48.080;8.362;2023-05-07T02:16:20;7.00;;;3.97;;
38843;SDS011;24596;48.080;8.362;2023-05-07T02:18:46;7.28;;;3.58;;
38843;SDS011;24596;48.080;8.362;2023-05-07T02:21:11;8.23;;;4.07;;
38843;SDS011;24596;48.080;8.362;2023-05-07T02:23:36;6.55;;;3.63;;
38843;SDS011;24596;48.080;8.362;2023-05-07T02:26:03;9.18;;;3.72;;
38843;SDS011;24596;48.080;8.362;2023-05-07T02:28:28;14.73;;;4.03;;
38843;SDS011;24596;48.080;8.362;2023-05-07T02:30:53;5.65;;;3.00;;
38843;SDS011;24596;48.080;8.362;2023-05-07T02:33:19;6.13;;;3.78;;
38843;SDS011;24596;48.080;8.362;2023-05-07T02:35:44;6.70;;;3.85;;
38843;SDS011;24596;48.080;8.362;2023-05-07T02:38:10;7.25;;;3.58;;
38843;SDS011;24596;48.080;8.362;2023-05-07T02:40:36;7.43;;;4.20;;
38843;SDS011;24596;48.080;8.362;2023-05-07T02:43:03;8.57;;;4.63;;
38843;SDS011;24596;48.080;8.362;2023-05-07T02:45:29;9.23;;;4.22;;
38843;SDS011;24596;48.080;8.362;2023-05-07T02:47:54;7.95;;;3.78;;
38843;SDS011;24596;48.080;8.362;2023-05-07T02:50:20;10.15;;;3.85;;
38843;SDS011;24596;48.080;8.362;2023-05-07T02:52:45;11.18;;;4.38;;
38843;SDS011;24596;48.080;8.362;2023-05-07T02:55:10;9.63;;;4.30;;
38843;SDS011;24596;48.080;8.362;2023-05-07T02:57:35;12.88;;;4.55;;
38843;SDS011;24596;48.080;8.362;2023-05-07T03:00:09;7.53;;;4.28;;
38843;SDS011;24596;48.080;8.362;2023-05-07T03:02:35;8.80;;;4.38;;
38843;SDS011;24596;48.080;8.362;2023-05-07T03:05:01;8.73;;;4.90;;
38843;SDS011;24596;48.080;8.362;2023-05-07T03:07:26;7.97;;;4.70;;
38843;SDS011;24596;48.080;8.362;2023-05-07T03:09:51;7.70;;;4.43;;
38843;SDS011;24596;48.080;8.362;2023-05-07T03:12:17;7.72;;;4.22;;
38843;SDS011;24596;48.080;8.362;2023-05-07T03:14:42;10.55;;;4.18;;
38843;SDS011;24596;48.080;8.362;2023-05-07T03:17:07;10.98;;;4.63;;
38843;SDS011;24596;48.080;8.362;2023-05-07T03:19:32;9.13;;;4.53;;
38843;SDS011;24596;48.080;8.362;2023-05-07T03:21:58;6.55;;;4.00;;
38843;SDS011;24596;48.080;8.362;2023-05-07T03:24:23;10.77;;;4.03;;
38843;SDS011;24596;48.080;8.362;2023-05-07T03:26:48;9.25;;;5.20;;
38843;SDS011;24596;48.080;8.362;2023-05-07T03:29:13;10.40;;;4.63;;
38843;SDS011;24596;48.080;8.362;2023-05-07T03:31:38;7.57;;;4.43;;
38843;SDS011;24596;48.080;8.362;2023-05-07T03:34:04;8.38;;;5.03;;
38843;SDS011;24596;48.080;8.362;2023-05-07T03:36:29;10.95;;;4.90;;
38843;SDS011;24596;48.080;8.362;2023-05-07T03:38:54;8.48;;;5.00;;
38843;SDS011;24596;48.080;8.362;2023-05-07T03:41:19;10.50;;;4.80;;
38843;SDS011;24596;48.080;8.362;2023-05-07T03:43:45;12.40;;;4.90;;
38843;SDS011;24596;48.080;8.362;2023-05-07T03:46:10;10.10;;;4.60;;
38843;SDS011;24596;48.080;8.362;2023-05-07T03:48:35;8.65;;;4.25;;
38843;SDS011;24596;48.080;8.362;2023-05-07T03:51:01;12.10;;;6.03;;
38843;SDS011;24596;48.080;8.362;2023-05-07T03:53:26;15.30;;;4.68;;
38843;SDS011;24596;48.080;8.362;2023-05-07T03:55:51;8.10;;;4.38;;
38843;SDS011;24596;48.080;8.362;2023-05-07T03:58:16;9.13;;;5.18;;
38843;SDS011;24596;48.080;8.362;2023-05-07T04:00:42;9.55;;;5.00;;
38843;SDS011;24596;48.080;8.362;2023-05-07T04:03:07;8.90;;;4.80;;
38843;SDS011;24596;48.080;8.362;2023-05-07T04:05:32;9.10;;;4.78;;
38843;SDS011;24596;48.080;8.362;2023-05-07T04:07:58;8.55;;;4.47;;
38843;SDS011;24596;48.080;8.362;2023-05-07T04:10:23;8.98;;;4.72;;
38843;SDS011;24596;48.080;8.362;2023-05-07T04:12:49;11.52;;;4.78;;
38843;SDS011;24596;48.080;8.362;2023-05-07T04:15:14;7.47;;;5.00;;
38843;SDS011;24596;48.080;8.362;2023-05-07T04:17:39;11.60;;;4.55;;
38843;SDS011;24596;48.080;8.362;2023-05-07T04:20:06;9.20;;;4.43;;
38843;SDS011;24596;48.080;8.362;2023-05-07T04:22:32;7.47;;;4.68;;
38843;SDS011;24596;48.080;8.362;2023-05-07T04:24:57;8.00;;;4.15;;
38843;SDS011;24596;48.080;8.362;2023-05-07T04:27:22;7.70;;;4.07;;
38843;SDS011;24596;48.080;8.362;2023-05-07T04:29:47;6.88;;;4.25;;
38843;SDS011;24596;48.080;8.362;2023-05-07T04:32:13;7.93;;;4.55;;
38843;SDS011;24596;48.080;8.362;2023-05-07T04:34:38;9.77;;;4.47;;
38843;SDS011;24596;48.080;8.362;2023-05-07T04:37:03;9.30;;;4.20;;
38843;SDS011;24596;48.080;8.362;2023-05-07T04:39:28;9.73;;;4.30;;
38843;SDS011;24596;48.080;8.362;2023-05-07T04:41:54;7.05;;;4.07;;
38843;SDS011;24596;48.080;8.362;2023-05-07T04:44:19;8.20;;;3.88;;
38843;SDS011;24596;48.080;8.362;2023-05-07T04:46:44;8.70;;;6.18;;
38843;SDS011;24596;48.080;8.362;2023-05-07T04:49:09;9.15;;;5.63;;
38843;SDS011;24596;48.080;8.362;2023-05-07T04:51:35;10.70;;;5.30;;
38843;SDS011;24596;48.080;8.362;2023-05-07T04:54:01;8.32;;;4.35;;
38843;SDS011;24596;48.080;8.362;2023-05-07T04:56:27;9.23;;;4.78;;
38843;SDS011;24596;48.080;8.362;2023-05-07T04:58:52;8.45;;;4.38;;
38843;SDS011;24596;48.080;8.362;2023-05-07T05:01:18;8.35;;;4.57;;
38843;SDS011;24596;48.080;8.362;2023-05-07T05:03:43;6.75;;;3.88;;
38843;SDS011;24596;48.080;8.362;2023-05-07T05:06:09;8.35;;;4.22;;
38843;SDS011;24596;48.080;8.362;2023-05-07T05:08:34;9.02;;;4.60;;
38843;SDS011;24596;48.080;8.362;2023-05-07T05:11:00;8.48;;;4.50;;
38843;SDS011;24596;48.080;8.362;2023-05-07T05:13:26;7.80;;;4.45;;
38843;SDS011;24596;48.080;8.362;2023-05-07T05:15:51;7.45;;;4.60;;
38843;SDS011;24596;48.080;8.362;2023-05-07T05:18:16;6.82;;;4.30;;
38843;SDS011;24596;48.080;8.362;2023-05-07T05:20:41;7.30;;;3.80;;
38843;SDS011;24596;48.080;8.362;2023-05-07T05:23:07;6.60;;;4.07;;
38843;SDS011;24596;48.080;8.362;2023-05-07T05:25:32;7.97;;;4.38;;
38843;SDS011;24596;48.080;8.362;2023-05-07T05:27:58;7.32;;;4.18;;
38843;SDS011;24596;48.080;8.362;2023-05-07T05:30:23;8.57;;;4.80;;
38843;SDS011;24596;48.080;8.362;2023-05-07T05:32:48;8.57;;;4.32;;
38843;SDS011;24596;48.080;8.362;2023-05-07T05:35:13;12.80;;;4.93;;
38843;SDS011;24596;48.080;8.362;2023-05-07T05:37:38;6.82;;;4.45;;
38843;SDS011;24596;48.080;8.362;2023-05-07T05:40:04;7.55;;;4.90;;
38843;SDS011;24596;48.080;8.362;2023-05-07T05:42:29;9.23;;;4.72;;
38843;SDS011;24596;48.080;8.362;2023-05-07T05:44:54;7.47;;;4.50;;
38843;SDS011;24596;48.080;8.362;2023-05-07T05:47:20;8.25;;;4.25;;
38843;SDS011;24596;48.080;8.362;2023-05-07T05:49:45;7.43;;;3.58;;
38843;SDS011;24596;48.080;8.362;2023-05-07T05:52:11;8.32;;;4.40;;
38843;SDS011;24596;48.080;8.362;2023-05-07T05:54:37;7.68;;;4.13;;
38843;SDS011;24596;48.080;8.362;2023-05-07T05:57:03;7.45;;;4.35;;
38843;SDS011;24596;48.080;8.362;2023-05-07T05:59:29;9.15;;;4.30;;
38843;SDS011;24596;48.080;8.362;2023-05-07T06:01:55;9.77;;;5.50;;
38843;SDS011;24596;48.080;8.362;2023-05-07T06:04:20;9.77;;;4.97;;
38843;SDS011;24596;48.080;8.362;2023-05-07T06:06:45;9.65;;;4.60;;
38843;SDS011;24596;48.080;8.362;2023-05-07T06:09:11;8.48;;;5.25;;
38843;SDS011;24596;48.080;8.362;2023-05-07T06:11:36;10.05;;;4.80;;
38843;SDS011;24596;48.080;8.362;2023-05-07T06:14:01;10.07;;;4.30;;
38843;SDS011;24596;48.080;8.362;2023-05-07T06:16:26;10.50;;;4.82;;
38843;SDS011;24596;48.080;8.362;2023-05-07T06:18:51;7.68;;;4.10;;
38843;SDS011;24596;48.080;8.362;2023-05-07T06:21:17;8.13;;;4.00;;
38843;SDS011;24596;48.080;8.362;2023-05-07T06:23:42;6.05;;;3.78;;
38843;SDS011;24596;48.080;8.362;2023-05-07T06:26:07;7.72;;;3.83;;
38843;SDS011;24596;48.080;8.362;2023-05-07T06:28:32;8.20;;;4.32;;
38843;SDS011;24596;48.080;8.362;2023-05-07T06:31:13;7.88;;;4.40;;
38843;SDS011;24596;48.080;8.362;2023-05-07T06:33:38;9.02;;;5.03;;
38843;SDS011;24596;48.080;8.362;2023-05-07T06:36:04;7.68;;;4.95;;
38843;SDS011;24596;48.080;8.362;2023-05-07T06:38:29;9.02;;;5.15;;
38843;SDS011;24596;48.080;8.362;2023-05-07T06:40:54;7.75;;;4.55;;
38843;SDS011;24596;48.080;8.362;2023-05-07T06:43:20;6.85;;;4.15;;
38843;SDS011;24596;48.080;8.362;2023-05-07T06:45:46;7.72;;;4.05;;
38843;SDS011;24596;48.080;8.362;2023-05-07T06:48:12;7.38;;;4.07;;
38843;SDS011;24596;48.080;8.362;2023-05-07T06:50:37;7.27;;;3.70;;
38843;SDS011;24596;48.080;8.362;2023-05-07T06:53:02;9.30;;;3.67;;
38843;SDS011;24596;48.080;8.362;2023-05-07T06:55:28;8.27;;;3.55;;
38843;SDS011;24596;48.080;8.362;2023-05-07T06:57:53;8.82;;;2.92;;
38843;SDS011;24596;48.080;8.362;2023-05-07T07:00:18;6.30;;;2.70;;
38843;SDS011;24596;48.080;8.362;2023-05-07T07:02:44;8.95;;;3.22;;
38843;SDS011;24596;48.080;8.362;2023-05-07T07:05:09;5.80;;;2.80;;
38843;SDS011;24596;48.080;8.362;2023-05-07T07:07:34;6.00;;;2.50;;
38843;SDS011;24596;48.080;8.362;2023-05-07T07:10:00;7.85;;;2.65;;
38843;SDS011;24596;48.080;8.362;2023-05-07T07:12:25;6.43;;;2.28;;
38843;SDS011;24596;48.080;8.362;2023-05-07T07:14:51;4.50;;;1.70;;
38843;SDS011;24596;48.080;8.362;2023-05-07T07:17:16;3.40;;;1.42;;
38843;SDS011;24596;48.080;8.362;2023-05-07T07:19:41;6.07;;;2.47;;
38843;SDS011;24596;48.080;8.362;2023-05-07T07:22:06;3.00;;;1.47;;
38843;SDS011;24596;48.080;8.362;2023-05-07T07:24:31;5.87;;;1.50;;
38843;SDS011;24596;48.080;8.362;2023-05-07T07:26:57;5.20;;;1.73;;
38843;SDS011;24596;48.080;8.362;2023-05-07T07:29:22;6.32;;;2.00;;
38843;SDS011;24596;48.080;8.362;2023-05-07T07:31:48;5.22;;;1.85;;
38843;SDS011;24596;48.080;8.362;2023-05-07T07:34:14;5.10;;;1.90;;
38843;SDS011;24596;48.080;8.362;2023-05-07T07:36:40;4.15;;;2.10;;
38843;SDS011;24596;48.080;8.362;2023-05-07T07:39:05;4.95;;;1.60;;
38843;SDS011;24596;48.080;8.362;2023-05-07T07:41:31;4.45;;;1.58;;
38843;SDS011;24596;48.080;8.362;2023-05-07T07:43:56;3.47;;;1.50;;
38843;SDS011;24596;48.080;8.362;2023-05-07T07:46:21;5.60;;;2.20;;
38843;SDS011;24596;48.080;8.362;2023-05-07T07:48:46;3.88;;;1.73;;
38843;SDS011;24596;48.080;8.362;2023-05-07T07:51:11;3.20;;;1.67;;
38843;SDS011;24596;48.080;8.362;2023-05-07T07:53:37;3.72;;;1.92;;
38843;SDS011;24596;48.080;8.362;2023-05-07T07:56:02;4.17;;;1.70;;
38843;SDS011;24596;48.080;8.362;2023-05-07T07:58:27;4.88;;;1.80;;
38843;SDS011;24596;48.080;8.362;2023-05-07T08:00:52;4.10;;;1.60;;
38843;SDS011;24596;48.080;8.362;2023-05-07T08:03:19;4.47;;;1.80;;
38843;SDS011;24596;48.080;8.362;2023-05-07T08:05:44;3.50;;;1.38;;
38843;SDS011;24596;48.080;8.362;2023-05-07T08:08:10;6.28;;;2.05;;
38843;SDS011;24596;48.080;8.362;2023-05-07T08:10:35;4.18;;;1.85;;
38843;SDS011;24596;48.080;8.362;2023-05-07T08:13:03;4.53;;;2.05;;
38843;SDS011;24596;48.080;8.362;2023-05-07T08:15:29;4.35;;;2.05;;
38843;SDS011;24596;48.080;8.362;2023-05-07T08:17:54;4.03;;;1.73;;
38843;SDS011;24596;48.080;8.362;2023-05-07T08:20:22;3.67;;;2.00;;
38843;SDS011;24596;48.080;8.362;2023-05-07T08:22:47;4.23;;;1.50;;
38843;SDS011;24596;48.080;8.362;2023-05-07T08:25:12;3.70;;;1.80;;
38843;SDS011;24596;48.080;8.362;2023-05-07T08:27:37;4.43;;;1.77;;
38843;SDS011;24596;48.080;8.362;2023-05-07T08:30:03;5.40;;;2.10;;
38843;SDS011;24596;48.080;8.362;2023-05-07T08:32:29;4.03;;;1.77;;
38843;SDS011;24596;48.080;8.362;2023-05-07T08:34:54;5.45;;;2.17;;
38843;SDS011;24596;48.080;8.362;2023-05-07T08:37:19;6.25;;;2.20;;
38843;SDS011;24596;48.080;8.362;2023-05-07T08:39:45;4.55;;;2.10;;
38843;SDS011;24596;48.080;8.362;2023-05-07T08:42:10;4.53;;;2.10;;
38843;SDS011;24596;48.080;8.362;2023-05-07T08:44:36;6.63;;;1.88;;
38843;SDS011;24596;48.080;8.362;2023-05-07T08:47:03;4.13;;;1.92;;
38843;SDS011;24596;48.080;8.362;2023-05-07T08:49:31;8.07;;;2.20;;
38843;SDS011;24596;48.080;8.362;2023-05-07T08:51:56;6.30;;;2.58;;
38843;SDS011;24596;48.080;8.362;2023-05-07T08:54:21;5.18;;;1.95;;
38843;SDS011;24596;48.080;8.362;2023-05-07T08:56:46;3.83;;;1.80;;
38843;SDS011;24596;48.080;8.362;2023-05-07T08:59:12;4.93;;;1.95;;
38843;SDS011;24596;48.080;8.362;2023-05-07T09:01:37;4.93;;;1.70;;
38843;SDS011;24596;48.080;8.362;2023-05-07T09:04:03;6.35;;;2.22;;
38843;SDS011;24596;48.080;8.362;2023-05-07T09:06:29;5.93;;;2.38;;
38843;SDS011;24596;48.080;8.362;2023-05-07T09:08:55;7.40;;;2.53;;
38843;SDS011;24596;48.080;8.362;2023-05-07T09:11:23;6.18;;;2.22;;
38843;SDS011;24596;48.080;8.362;2023-05-07T09:13:53;7.80;;;2.53;;
38843;SDS011;24596;48.080;8.362;2023-05-07T09:16:19;4.57;;;2.35;;
38843;SDS011;24596;48.080;8.362;2023-05-07T09:18:45;7.25;;;2.58;;
38843;SDS011;24596;48.080;8.362;2023-05-07T09:21:14;5.00;;;2.33;;
38843;SDS011;24596;48.080;8.362;2023-05-07T09:23:39;4.47;;;2.55;;
38843;SDS011;24596;48.080;8.362;2023-05-07T09:26:05;6.70;;;2.73;;
38843;SDS011;24596;48.080;8.362;2023-05-07T09:28:32;5.22;;;2.45;;
38843;SDS011;24596;48.080;8.362;2023-05-07T09:30:57;6.63;;;2.75;;
38843;SDS011;24596;48.080;8.362;2023-05-07T09:33:24;4.82;;;2.33;;
38843;SDS011;24596;48.080;8.362;2023-05-07T09:35:51;4.47;;;2.58;;
38843;SDS011;24596;48.080;8.362;2023-05-07T09:38:17;5.15;;;2.70;;
38843;SDS011;24596;48.080;8.362;2023-05-07T09:40:43;6.95;;;2.78;;
38843;SDS011;24596;48.080;8.362;2023-05-07T09:43:09;8.17;;;2.60;;
38843;SDS011;24596;48.080;8.362;2023-05-07T09:45:35;5.03;;;2.15;;
38843;SDS011;24596;48.080;8.362;2023-05-07T09:48:01;5.70;;;2.60;;
38843;SDS011;24596;48.080;8.362;2023-05-07T09:50:30;4.95;;;2.58;;
38843;SDS011;24596;48.080;8.362;2023-05-07T09:52:57;4.78;;;2.40;;
38843;SDS011;24596;48.080;8.362;2023-05-07T09:55:23;6.43;;;2.60;;
38843;SDS011;24596;48.080;8.362;2023-05-07T09:57:52;5.13;;;2.33;;
38843;SDS011;24596;48.080;8.362;2023-05-07T10:00:21;6.03;;;2.53;;
38843;SDS011;24596;48.080;8.362;2023-05-07T10:02:47;8.40;;;2.72;;
38843;SDS011;24596;48.080;8.362;2023-05-07T10:05:14;7.50;;;3.50;;
38843;SDS011;24596;48.080;8.362;2023-05-07T10:07:40;6.63;;;3.22;;
38843;SDS011;24596;48.080;8.362;2023-05-07T10:10:05;5.70;;;3.40;;
38843;SDS011;24596;48.080;8.362;2023-05-07T10:12:31;7.40;;;3.80;;
38843;SDS011;24596;48.080;8.362;2023-05-07T10:15:02;6.32;;;2.88;;
38843;SDS011;24596;48.080;8.362;2023-05-07T10:17:28;8.10;;;3.42;;
38843;SDS011;24596;48.080;8.362;2023-05-07T10:19:54;7.75;;;3.28;;
38843;SDS011;24596;48.080;8.362;2023-05-07T10:22:19;5.45;;;3.28;;
38843;SDS011;24596;48.080;8.362;2023-05-07T10:24:45;7.80;;;3.83;;
38843;SDS011;24596;48.080;8.362;2023-05-07T10:27:13;7.32;;;3.38;;
38843;SDS011;24596;48.080;8.362;2023-05-07T10:34:48;4.60;;;2.70;;
38843;SDS011;24596;48.080;8.362;2023-05-07T10:37:15;7.82;;;3.20;;
38843;SDS011;24596;48.080;8.362;2023-05-07T10:39:41;7.75;;;3.17;;
38843;SDS011;24596;48.080;8.362;2023-05-07T10:42:10;7.40;;;3.40;;
38843;SDS011;24596;48.080;8.362;2023-05-07T10:44:36;7.53;;;3.20;;
38843;SDS011;24596;48.080;8.362;2023-05-07T10:47:08;7.45;;;3.58;;
38843;SDS011;24596;48.080;8.362;2023-05-07T10:49:35;7.13;;;3.40;;
38843;SDS011;24596;48.080;8.362;2023-05-07T10:52:19;11.10;;;4.68;;
38843;SDS011;24596;48.080;8.362;2023-05-07T10:54:45;7.45;;;4.13;;
38843;SDS011;24596;48.080;8.362;2023-05-07T10:59:54;8.77;;;5.15;;
38843;SDS011;24596;48.080;8.362;2023-05-07T11:02:20;14.07;;;5.20;;
38843;SDS011;24596;48.080;8.362;2023-05-07T11:04:45;11.30;;;4.93;;
38843;SDS011;24596;48.080;8.362;2023-05-07T11:10:05;14.25;;;4.88;;
38843;SDS011;24596;48.080;8.362;2023-05-07T11:17:27;14.33;;;4.70;;
38843;SDS011;24596;48.080;8.362;2023-05-07T11:19:56;9.75;;;4.65;;
38843;SDS011;24596;48.080;8.362;2023-05-07T11:25:00;9.45;;;3.40;;
38843;SDS011;24596;48.080;8.362;2023-05-07T11:27:25;7.88;;;3.67;;
38843;SDS011;24596;48.080;8.362;2023-05-07T11:29:50;9.32;;;3.58;;
38843;SDS011;24596;48.080;8.362;2023-05-07T11:32:21;7.22;;;3.55;;
38843;SDS011;24596;48.080;8.362;2023-05-07T11:34:47;9.87;;;3.90;;
38843;SDS011;24596;48.080;8.362;2023-05-07T11:37:19;7.68;;;3.72;;
38843;SDS011;24596;48.080;8.362;2023-05-07T11:39:44;10.35;;;4.90;;
38843;SDS011;24596;48.080;8.362;2023-05-07T11:44:53;6.38;;;3.22;;
38843;SDS011;24596;48.080;8.362;2023-05-07T11:47:19;10.18;;;3.70;;
38843;SDS011;24596;48.080;8.362;2023-05-07T11:49:48;5.90;;;2.80;;
38843;SDS011;24596;48.080;8.362;2023-05-07T11:52:14;9.90;;;3.28;;
38843;SDS011;24596;48.080;8.362;2023-05-07T11:54:39;8.30;;;2.85;;
38843;SDS011;24596;48.080;8.362;2023-05-07T11:57:04;7.25;;;2.88;;
38843;SDS011;24596;48.080;8.362;2023-05-07T11:59:37;7.30;;;2.83;;
38843;SDS011;24596;48.080;8.362;2023-05-07T12:02:03;6.43;;;3.05;;
38843;SDS011;24596;48.080;8.362;2023-05-07T12:04:29;5.75;;;2.63;;
38843;SDS011;24596;48.080;8.362;2023-05-07T12:06:54;6.00;;;2.00;;
38843;SDS011;24596;48.080;8.362;2023-05-07T12:09:20;6.25;;;2.80;;
38843;SDS011;24596;48.080;8.362;2023-05-07T12:11:46;5.80;;;2.70;;
38843;SDS011;24596;48.080;8.362;2023-05-07T12:14:11;5.45;;;2.60;;
38843;SDS011;24596;48.080;8.362;2023-05-07T12:16:36;7.25;;;2.47;;
38843;SDS011;24596;48.080;8.362;2023-05-07T12:19:03;3.85;;;2.15;;
38843;SDS011;24596;48.080;8.362;2023-05-07T12:21:31;5.50;;;2.30;;
38843;SDS011;24596;48.080;8.362;2023-05-07T12:23:56;6.65;;;2.65;;
38843;SDS011;24596;48.080;8.362;2023-05-07T12:26:22;6.40;;;2.65;;
38843;SDS011;24596;48.080;8.362;2023-05-07T12:28:47;5.00;;;2.10;;
38843;SDS011;24596;48.080;8.362;2023-05-07T12:31:13;5.55;;;1.90;;
38843;SDS011;24596;48.080;8.362;2023-05-07T12:33:39;4.68;;;2.05;;
38843;SDS011;24596;48.080;8.362;2023-05-07T12:36:05;6.50;;;2.15;;
38843;SDS011;24596;48.080;8.362;2023-05-07T12:38:36;3.88;;;1.80;;
38843;SDS011;24596;48.080;8.362;2023-05-07T12:41:02;4.93;;;1.65;;
38843;SDS011;24596;48.080;8.362;2023-05-07T12:43:27;3.67;;;1.60;;
38843;SDS011;24596;48.080;8.362;2023-05-07T12:45:56;4.80;;;1.52;;
38843;SDS011;24596;48.080;8.362;2023-05-07T12:48:23;3.78;;;1.63;;
38843;SDS011;24596;48.080;8.362;2023-05-07T12:50:49;5.00;;;1.35;;
38843;SDS011;24596;48.080;8.362;2023-05-07T12:53:14;6.40;;;1.80;;
38843;SDS011;24596;48.080;8.362;2023-05-07T12:55:41;4.38;;;2.00;;
38843;SDS011;24596;48.080;8.362;2023-05-07T12:58:07;3.95;;;1.70;;
38843;SDS011;24596;48.080;8.362;2023-05-07T13:00:33;3.97;;;1.70;;
38843;SDS011;24596;48.080;8.362;2023-05-07T13:02:59;3.83;;;1.45;;
38843;SDS011;24596;48.080;8.362;2023-05-07T13:05:24;4.17;;;1.70;;
38843;SDS011;24596;48.080;8.362;2023-05-07T13:07:55;4.80;;;1.45;;
38843;SDS011;24596;48.080;8.362;2023-05-07T13:10:21;3.75;;;1.48;;
38843;SDS011;24596;48.080;8.362;2023-05-07T13:12:46;2.67;;;0.90;;
38843;SDS011;24596;48.080;8.362;2023-05-07T13:15:11;1.90;;;1.10;;
38843;SDS011;24596;48.080;8.362;2023-05-07T13:17:37;3.30;;;1.40;;
38843;SDS011;24596;48.080;8.362;2023-05-07T13:20:02;4.50;;;1.30;;
38843;SDS011;24596;48.080;8.362;2023-05-07T13:22:27;9.63;;;1.73;;
38843;SDS011;24596;48.080;8.362;2023-05-07T13:24:52;3.95;;;1.67;;
38843;SDS011;24596;48.080;8.362;2023-05-07T13:27:18;2.83;;;1.33;;
38843;SDS011;24596;48.080;8.362;2023-05-07T13:29:44;4.10;;;1.58;;
38843;SDS011;24596;48.080;8.362;2023-05-07T13:32:09;2.33;;;1.27;;
38843;SDS011;24596;48.080;8.362;2023-05-07T13:34:35;2.72;;;1.30;;
38843;SDS011;24596;48.080;8.362;2023-05-07T13:37:00;2.97;;;1.23;;
38843;SDS011;24596;48.080;8.362;2023-05-07T13:39:26;2.90;;;1.15;;
38843;SDS011;24596;48.080;8.362;2023-05-07T13:41:51;4.97;;;2.08;;
38843;SDS011;24596;48.080;8.362;2023-05-07T13:44:16;12.57;;;2.92;;
38843;SDS011;24596;48.080;8.362;2023-05-07T13:46:41;6.18;;;2.03;;
38843;SDS011;24596;48.080;8.362;2023-05-07T13:49:07;5.80;;;1.58;;
38843;SDS011;24596;48.080;8.362;2023-05-07T13:51:35;5.82;;;1.90;;
38843;SDS011;24596;48.080;8.362;2023-05-07T13:54:00;3.50;;;1.58;;
38843;SDS011;24596;48.080;8.362;2023-05-07T13:56:26;4.28;;;1.35;;
38843;SDS011;24596;48.080;8.362;2023-05-07T13:58:53;2.80;;;1.20;;
38843;SDS011;24596;48.080;8.362;2023-05-07T14:01:18;5.60;;;1.60;;
38843;SDS011;24596;48.080;8.362;2023-05-07T14:03:43;3.40;;;1.42;;
38843;SDS011;24596;48.080;8.362;2023-05-07T14:06:09;3.25;;;1.17;;
38843;SDS011;24596;48.080;8.362;2023-05-07T14:08:34;5.03;;;1.30;;
38843;SDS011;24596;48.080;8.362;2023-05-07T14:10:59;6.30;;;1.35;;
38843;SDS011;24596;48.080;8.362;2023-05-07T14:13:24;3.85;;;1.40;;
38843;SDS011;24596;48.080;8.362;2023-05-07T14:15:50;3.20;;;1.40;;
38843;SDS011;24596;48.080;8.362;2023-05-07T14:18:15;6.00;;;2.50;;
38843;SDS011;24596;48.080;8.362;2023-05-07T14:20:41;4.18;;;1.80;;
38843;SDS011;24596;48.080;8.362;2023-05-07T14:23:08;5.85;;;2.42;;
38843;SDS011;24596;48.080;8.362;2023-05-07T14:25:33;4.78;;;1.95;;
38843;SDS011;24596;48.080;8.362;2023-05-07T14:27:58;5.70;;;2.20;;
38843;SDS011;24596;48.080;8.362;2023-05-07T14:30:23;5.03;;;1.93;;
38843;SDS011;24596;48.080;8.362;2023-05-07T14:32:49;6.78;;;2.25;;
38843;SDS011;24596;48.080;8.362;2023-05-07T14:35:15;6.43;;;2.53;;
38843;SDS011;24596;48.080;8.362;2023-05-07T14:37:40;4.80;;;2.50;;
38843;SDS011;24596;48.080;8.362;2023-05-07T14:40:05;6.68;;;2.78;;
38843;SDS011;24596;48.080;8.362;2023-05-07T14:42:31;7.60;;;2.70;;
38843;SDS011;24596;48.080;8.362;2023-05-07T14:44:56;7.18;;;2.67;;
38843;SDS011;24596;48.080;8.362;2023-05-07T14:47:21;6.83;;;2.60;;
38843;SDS011;24596;48.080;8.362;2023-05-07T14:49:46;5.45;;;2.75;;
38843;SDS011;24596;48.080;8.362;2023-05-07T14:52:11;6.25;;;2.90;;
38843;SDS011;24596;48.080;8.362;2023-05-07T14:54:37;8.10;;;2.72;;
38843;SDS011;24596;48.080;8.362;2023-05-07T14:57:02;7.55;;;2.78;;